createdAt,value
2023-02-12T00:04:32.102Z,6.88
2023-02-12T00:14:30.982Z,8.76
2023-02-12T00:24:29.985Z,7.69
2023-02-12T00:34:29.076Z,8.63
2023-02-12T00:44:29.078Z,6.27
2023-02-12T00:54:28.141Z,6.07
2023-02-12T01:04:28.874Z,8.63
2023-02-12T01:14:28.092Z,7.35
2023-02-12T01:24:27.131Z,8.02
2023-02-12T01:34:26.478Z,6.20
2023-02-12T01:44:25.312Z,6.47
2023-02-12T01:54:26.273Z,7.75
2023-02-12T02:04:25.155Z,9.71
2023-02-12T02:14:34.885Z,10.18
2023-02-12T02:24:34.134Z,7.35
2023-02-12T02:34:33.151Z,8.90
2023-02-12T02:44:32.184Z,7.48
2023-02-12T02:54:31.046Z,8.43
2023-02-12T03:04:32.043Z,7.48
2023-02-12T03:14:31.173Z,8.09
2023-02-12T03:24:30.137Z,9.84
2023-02-12T03:34:29.086Z,9.37
2023-02-12T03:44:28.128Z,7.28
2023-02-12T03:54:27.490Z,6.94
2023-02-12T04:04:26.039Z,10.25
2023-02-12T04:14:25.076Z,9.57
2023-02-12T04:24:24.098Z,9.51
2023-02-12T04:34:23.175Z,7.62
2023-02-12T04:44:22.174Z,6.61
2023-02-12T04:54:21.307Z,6.88
2023-02-12T05:04:20.279Z,8.63
2023-02-12T05:14:19.123Z,7.15
2023-02-12T05:24:18.169Z,8.97
2023-02-12T05:34:17.222Z,7.15
2023-02-12T05:44:16.319Z,9.71
2023-02-12T05:54:15.125Z,8.36
2023-02-12T06:04:14.193Z,7.62
2023-02-12T06:14:13.183Z,9.30
2023-02-12T06:24:12.232Z,7.89
2023-02-12T06:34:11.309Z,5.66
2023-02-12T06:44:10.352Z,7.08
2023-02-12T06:54:09.179Z,5.80
2023-02-12T07:04:08.340Z,8.16
2023-02-12T07:14:07.414Z,8.49
2023-02-12T07:24:06.325Z,8.36
2023-02-12T07:34:08.434Z,6.81
2023-02-12T07:44:07.175Z,10.85
2023-02-12T07:54:06.323Z,8.43
2023-02-12T08:04:08.334Z,7.21
2023-02-12T08:14:07.248Z,8.56
2023-02-12T08:24:06.347Z,7.08
2023-02-12T08:34:05.171Z,11.66
2023-02-12T08:44:04.473Z,9.30
2023-02-12T08:54:03.263Z,6.54
2023-02-12T09:04:02.238Z,8.76
2023-02-12T09:14:01.190Z,11.39
2023-02-12T09:24:00.132Z,7.08
2023-02-12T09:33:59.261Z,11.12
2023-02-12T09:43:58.221Z,8.70
2023-02-12T09:53:57.255Z,10.52
2023-02-12T10:03:56.237Z,8.59
2023-02-12T10:13:55.251Z,8.68
2023-02-12T10:23:54.284Z,7.38
2023-02-12T10:33:55.999Z,5.42
2023-02-12T10:43:55.254Z,9.43
2023-02-12T10:53:54.291Z,7.81
2023-02-12T11:03:53.348Z,9.02
2023-02-12T11:13:52.288Z,9.21
2023-02-12T11:23:51.537Z,7.04
2023-02-12T11:33:51.415Z,8.40
2023-02-12T11:43:51.957Z,6.50
2023-02-12T11:53:51.433Z,6.45
2023-02-12T12:03:50.308Z,8.51
2023-02-12T12:13:49.331Z,5.03
2023-02-12T12:23:48.642Z,7.07
2023-02-12T12:33:47.432Z,6.54
2023-02-12T12:43:46.264Z,4.55
2023-02-12T12:53:45.613Z,7.50
2023-02-12T13:03:45.388Z,4.86
2023-02-12T13:13:44.437Z,5.78
2023-02-12T13:23:43.486Z,6.25
2023-02-12T13:33:42.540Z,5.44
2023-02-12T13:43:41.597Z,5.33
2023-02-12T13:53:40.518Z,5.56
2023-02-12T14:03:39.478Z,6.21
2023-02-12T14:13:38.403Z,6.05
2023-02-12T14:23:37.569Z,6.20
2023-02-12T14:33:36.402Z,9.50
2023-02-12T14:43:38.715Z,7.34
2023-02-12T14:53:37.453Z,5.85
2023-02-12T15:03:36.579Z,6.56
2023-02-12T15:13:38.430Z,6.42
2023-02-12T15:23:37.450Z,6.24
2023-02-12T15:33:36.669Z,4.10
2023-02-12T15:43:35.567Z,6.20
2023-02-12T15:53:34.394Z,8.39
2023-02-12T16:03:33.523Z,5.85
2023-02-12T16:13:32.567Z,5.19
2023-02-12T16:23:31.438Z,3.48
2023-02-12T16:33:30.679Z,5.08
2023-02-12T16:43:29.538Z,5.22
2023-02-12T16:53:28.575Z,5.45
2023-02-12T17:03:27.783Z,6.55
2023-02-12T17:13:26.764Z,4.87
2023-02-12T17:23:25.723Z,4.79
2023-02-12T17:33:24.856Z,3.03
2023-02-12T17:43:23.605Z,4.70
2023-02-12T17:53:22.585Z,3.97
2023-02-12T18:03:21.603Z,3.18
2023-02-12T18:13:20.743Z,3.33
2023-02-12T18:23:19.578Z,2.93
2023-02-12T18:33:21.699Z,3.95
2023-02-12T18:43:20.760Z,3.87
2023-02-12T18:53:19.597Z,3.07
2023-02-12T19:03:18.663Z,4.73
2023-02-12T19:13:17.688Z,2.83
2023-02-12T19:23:16.777Z,4.08
2023-02-12T19:33:15.774Z,3.77
2023-02-12T19:43:14.616Z,2.83
2023-02-12T19:53:13.695Z,5.03
2023-02-12T20:03:13.577Z,4.46
2023-02-12T20:13:12.934Z,4.13
2023-02-12T20:23:12.107Z,2.64
2023-02-12T20:33:10.632Z,4.20
2023-02-12T20:43:09.811Z,3.65
2023-02-12T20:53:08.726Z,4.57
2023-02-12T21:03:07.779Z,2.94
2023-02-12T21:13:06.953Z,4.02
2023-02-12T21:23:05.696Z,4.39
2023-02-12T21:33:04.751Z,3.01
2023-02-12T21:43:03.665Z,2.39
2023-02-12T21:53:02.811Z,4.24
2023-02-12T22:03:01.662Z,5.39
2023-02-12T22:13:00.752Z,4.46
2023-02-12T22:22:59.767Z,4.02
2023-02-12T22:32:58.830Z,3.40
2023-02-12T22:42:57.820Z,2.94
2023-02-12T22:52:56.662Z,3.63
2023-02-12T23:02:55.812Z,3.33
2023-02-12T23:12:54.856Z,3.72
2023-02-12T23:22:53.823Z,3.87
2023-02-12T23:32:53.585Z,3.02
2023-02-12T23:42:52.801Z,4.19
2023-02-12T23:52:51.708Z,4.97
